ENRS/RET METAR and TAF weather

Enter ICAO airport designator
Station Type Date Time Source
ENRS METAR 2020/07/10 17:50 UTC NOAA

ENRS 101750Z 16008KT 9999 FEW015 13/09 Q1006


Station Type Date Time Source
ENRS Decoded METAR 2020/07/10 17:50 UTC NOAA

Rost Flyplass, Norway (ENRS) 67-31N 012-06E
Jul 10, 2020 - 01:50 PM EDT / 2020.07.10 1750 UTC
Wind: from the SSE (160 degrees) at 9 MPH (8 KT):0
Visibility: greater than 7 mile(s):0
Sky conditions: mostly clear
Temperature: 55 F (13 C)
Dew Point: 48 F (9 C)
Relative Humidity: 76%
Pressure (altimeter): 29.71 in. Hg (1006 hPa)
ob: ENRS 101750Z 16008KT 9999 FEW015 13/09 Q1006
cycle: 18

Station Type Date Time Source
ENRS TAF UTC NOAA

Error!

Example: see airport list